Latest Weather Observations for Hindmarsh Island

IDS60801

Issued at 9:21 pm CDT Thursday 17 January 2019 (issued every 10 minutes, with the page automatically refreshed every 10 minutes)

About weather observations | Map of weather stations | Latest weather observations for SA | Other Formats
Station Details ID: 023894 Name: HINDMARSH ISLAND AWS Lat: -35.52 Lon: 138.82 Height: 11.0 m
Data from the previous 72 hours. | See also: Recent months at Hindmarsh Island
Date/Time
CDT
Temp
°C
App
Temp
°C
Dew
Point
°C
Rel
Hum
%
Delta-T
°C
Wind Press
QNH
hPa
Press
MSL
hPa
Rain since
9am
mm
Dir  Spd
km/h
Gust
km/h
Spd
kts
Gust
kts
17/09:00pm 23.6 23.9 16.9 66 4.1 NNE 11 15 6 8 1007.9 1007.8 0.0
17/08:30pm 23.1 24.7 16.9 68 3.8 NNE 4 9 2 5 1007.9 1007.8 0.0
17/08:00pm 23.1 24.9 17.3 70 3.6 SE 4 7 2 4 1007.8 1007.7 0.0
17/07:30pm 23.1 23.9 17.3 70 3.6 SSW 9 13 5 7 1008.1 1008.0 0.0
17/07:00pm 23.5 23.6 17.5 69 3.7 SW 13 17 7 9 1008.5 1008.4 0.0
17/06:30pm 22.9 21.2 18.0 74 3.1 SW 24 33 13 18 1007.7 1007.6 0.0
17/06:00pm 23.2 21.7 17.7 71 3.4 SW 22 28 12 15 1007.8 1007.7 0.0
17/05:30pm 23.9 21.7 17.9 69 3.8 SW 26 32 14 17 1007.7 1007.6 0.0
17/05:00pm 24.4 21.1 17.9 67 4.1 SW 32 37 17 20 1007.6 1007.5 0.0
17/04:30pm 25.0 21.3 18.4 66 4.2 SW 35 46 19 25 1007.5 1007.4 0.0
17/04:00pm 24.6 20.5 17.3 64 4.5 SW 35 43 19 23 1007.4 1007.3 0.0
17/03:30pm 24.9 20.3 17.9 65 4.4 SW 39 48 21 26 1007.4 1007.3 0.0
17/03:00pm 26.8 23.4 17.8 57 5.7 SW 32 50 17 27 1007.3 1007.2 0.0
17/02:57pm 26.3 23.6 17.6 58 5.5 SW 28 50 15 27 1007.5 1007.4 0.0
17/02:30pm 30.4 28.0 16.4 43 8.8 SSW 24 30 13 16 1007.3 1007.2 0.0
17/02:00pm 32.7 30.4 15.7 36 10.6 S 22 28 12 15 1007.2 1007.1 0.0
17/01:30pm 35.3 33.9 11.0 23 14.3 N 9 13 5 7 1007.2 1007.1 0.0
17/01:00pm 32.9 31.1 14.5 33 11.3 SE 17 19 9 10 1007.3 1007.2 0.0
17/12:30pm 33.1 31.5 16.0 35 10.8 ESE 19 20 10 11 1007.3 1007.2 0.0
17/12:00pm 34.4 34.1 14.3 30 12.4 SE 9 13 5 7 1007.7 1007.6 0.0
17/11:30am 34.1 33.2 11.3 25 13.4 ESE 7 9 4 5 1007.6 1007.5 0.0
17/11:00am 33.8 33.2 11.6 26 13.1 N 6 7 3 4 1007.8 1007.7 0.0
17/10:30am 33.0 32.3 12.1 28 12.4 N 7 15 4 8 1007.7 1007.6 0.0
17/10:00am 31.6 29.0 11.9 30 11.6 NNE 17 22 9 12 1007.9 1007.8 0.0
17/09:30am 30.3 27.9 12.7 34 10.4 NNE 17 22 9 12 1008.5 1008.4 0.0
17/09:00am 28.7 26.5 13.4 39 9.1 NNE 17 28 9 15 1008.7 1008.6 0.0
17/08:30am 26.3 24.3 15.4 51 6.6 N 20 26 11 14 1007.8 1007.7 0.0
17/08:00am 25.5 25.6 16.4 57 5.6 N 11 15 6 8 1008.0 1007.9 0.0
17/07:30am 23.8 23.8 17.1 66 4.1 NNE 13 17 7 9 1007.7 1007.6 0.0
17/07:00am 22.6 24.3 17.1 71 3.4 NNW 4 11 2 6 1007.8 1007.7 0.0
17/06:30am 22.2 22.2 17.1 73 3.1 N 13 17 7 9 1007.9 1007.8 0.0
17/06:00am 22.0 20.9 17.4 75 2.8 N 19 24 10 13 1008.0 1007.9 0.0
17/05:30am 21.9 21.3 17.5 76 2.7 N 17 24 9 13 1007.7 1007.6 0.0
17/05:00am 21.6 21.7 17.4 77 2.6 NNE 13 17 7 9 1007.3 1007.2 0.0
17/04:30am 21.4 22.5 17.2 77 2.6 SW 7 13 4 7 1008.4 1008.3 0.0
17/04:00am 21.4 21.4 17.2 77 2.6 WSW 13 20 7 11 1009.0 1008.9 0.0
17/03:30am 21.6 20.0 17.4 77 2.6 SSW 22 26 12 14 1008.6 1008.5 0.0
17/03:00am 23.0 20.1 17.0 69 3.7 SW 28 35 15 19 1009.1 1009.0 0.0
17/02:30am 23.5 20.5 15.8 62 4.7 SW 26 32 14 17 1009.1 1009.0 0.0
17/02:00am 23.0 21.8 17.0 69 3.7 SW 19 24 10 13 1009.1 1009.0 0.0
17/01:30am 23.3 21.3 15.6 62 4.6 WSW 20 32 11 17 1009.3 1009.2 0.0
17/01:00am 22.3 20.8 15.2 64 4.2 N 17 20 9 11 1007.5 1007.4 0.0
17/12:30am 22.0 21.5 15.8 68 3.7 N 13 15 7 8 1007.4 1007.3 0.0
17/12:00am 22.0 22.7 16.1 69 3.6 W 7 15 4 8 1007.5 1007.4 0.0
 
Date/Time
CDT
Temp
°C
App
Temp
°C
Dew
Point
°C
Rel
Hum
%
Delta-T
°C
Wind Press
QNH
hPa
Press
MSL
hPa
Rain since
9am
mm
Dir  Spd
km/h
Gust
km/h
Spd
kts
Gust
kts
16/11:30pm 21.6 21.6 16.3 72 3.2 NW 11 15 6 8 1007.8 1007.7 0.0
16/11:00pm 21.6 22.0 16.3 72 3.2 NNE 9 15 5 8 1007.5 1007.4 0.0
16/10:30pm 21.5 21.1 16.2 72 3.2 S 13 17 7 9 1008.0 1007.9 0.0
16/10:00pm 21.6 20.1 16.8 74 2.9 SSW 20 28 11 15 1008.6 1008.5 0.0
16/09:30pm 21.3 19.6 16.3 73 3.0 SSW 20 28 11 15 1008.5 1008.4 0.0
16/09:00pm 21.4 19.0 16.4 73 3.0 SW 24 35 13 19 1008.4 1008.3 0.0
16/08:30pm 21.3 18.3 16.7 75 2.8 SSW 28 39 15 21 1007.5 1007.4 0.0
16/08:00pm 22.3 19.0 17.0 72 3.2 SW 30 37 16 20 1007.0 1006.9 0.0
16/07:30pm 23.3 20.1 17.3 69 3.7 SW 30 39 16 21 1007.1 1007.0 0.0
16/07:04pm 27.4 24.6 16.4 51 6.8 SSW 26 57 14 31 1005.9 1005.8 0.0
16/07:00pm 28.7 27.6 16.3 47 7.7 SSW 17 44 9 24 1005.8 1005.7 0.0
16/06:30pm 34.0 34.3 13.5 29 12.5 N 4 7 2 4 1005.1 1005.0 0.0
16/06:00pm 33.5 32.1 13.5 29 12.2 NNE 13 17 7 9 1004.9 1004.8 0.0
16/05:30pm 33.2 31.4 13.3 30 12.0 N 15 22 8 12 1005.0 1004.9 0.0
16/05:00pm 32.3 29.8 13.5 32 11.3 NNE 19 24 10 13 1005.3 1005.2 0.0
16/04:30pm 29.9 29.6 14.4 38 9.4 SW 9 13 5 7 1005.9 1005.8 0.0
16/04:00pm 28.7 28.6 14.9 43 8.4 NNE 9 13 5 7 1006.7 1006.6 0.0
16/03:30pm 29.1 28.9 15.6 44 8.3 SE 11 19 6 10 1007.2 1007.1 0.0
16/03:00pm 26.4 24.6 15.4 50 6.7 SE 19 24 10 13 1007.9 1007.8 0.0
16/02:30pm 24.2 22.4 17.0 64 4.5 SE 22 28 12 15 1008.3 1008.2 0.0
16/02:00pm 23.9 21.1 17.2 66 4.1 SSE 28 37 15 20 1008.9 1008.8 0.0
16/01:30pm 22.9 19.5 17.6 72 3.3 SSE 32 39 17 21 1009.2 1009.1 0.0
16/01:00pm 23.7 20.4 17.9 70 3.6 SSE 32 46 17 25 1009.5 1009.4 0.0
16/12:33pm 25.0 22.5 18.9 69 3.9 SSE 30 50 16 27 1009.4 1009.3 0.0
16/12:30pm 24.5 23.5 19.6 74 3.2 SSE 24 50 13 27 1009.5 1009.4 0.0
16/12:17pm 24.1 22.7 17.1 65 4.3 E 20 46 11 25 1009.6 1009.5 0.0
16/12:06pm 25.2 24.7 17.7 63 4.7 N 17 41 9 22 1010.0 1009.9 0.0
16/12:00pm 25.8 25.2 16.6 56 5.7 N 15 22 8 12 1009.4 1009.3 0.0
16/11:30am 24.4 23.6 17.1 63 4.5 NNE 17 24 9 13 1008.8 1008.7 0.0
16/11:00am 24.8 25.2 17.3 63 4.7 NE 11 13 6 7 1008.9 1008.8 0.0
16/10:30am 23.5 24.4 17.5 69 3.7 ENE 9 15 5 8 1009.9 1009.8 0.0
16/10:00am 21.3 21.1 17.5 79 2.3 N 15 20 8 11 1010.1 1010.0 0.0
16/09:30am 20.6 20.9 17.0 80 2.2 NNE 11 17 6 9 1010.2 1010.1 0.0
16/09:00am 19.7 20.2 16.5 82 1.9 NNE 9 11 5 6 1010.6 1010.5 0.0
16/08:30am 19.4 20.8 16.4 83 1.8 SW 4 9 2 5 1010.8 1010.7 0.0
16/08:00am 19.5 19.3 16.7 84 1.7 SSW 13 15 7 8 1010.8 1010.7 0.0
16/07:30am 19.3 18.3 16.7 85 1.6 S 17 20 9 11 1010.5 1010.4 0.0
16/07:00am 19.1 17.6 16.7 86 1.4 SSW 20 24 11 13 1010.4 1010.3 0.0
16/06:30am 19.1 18.1 16.7 86 1.4 SSW 17 20 9 11 1009.9 1009.8 0.0
16/06:00am 19.2 18.7 16.8 86 1.5 SSW 15 17 8 9 1009.4 1009.3 0.0
16/05:30am 19.0 19.1 16.4 85 1.6 S 11 15 6 8 1009.0 1008.9 0.0
16/05:00am 19.2 18.9 16.4 84 1.7 S 13 15 7 8 1009.0 1008.9 0.0
16/04:30am 19.1 19.1 16.3 84 1.7 SSW 11 13 6 7 1009.1 1009.0 0.0
16/04:00am 19.3 19.3 16.3 83 1.8 SSW 11 13 6 7 1009.0 1008.9 0.0
16/03:30am 19.3 20.9 16.0 81 2.0 ENE 2 6 1 3 1009.3 1009.2 0.0
16/03:00am 19.5 20.4 16.2 81 2.0 E 6 11 3 6 1009.6 1009.5 0.0
16/02:30am 20.0 20.2 16.8 82 1.9 SSE 11 15 6 8 1009.7 1009.6 0.0
16/02:00am 20.2 20.1 17.0 82 1.9 S 13 17 7 9 1010.2 1010.1 0.0
16/01:30am 20.3 19.4 16.9 81 2.1 S 17 20 9 11 1010.5 1010.4 0.0
16/01:00am 20.5 19.5 16.7 79 2.3 SSW 17 20 9 11 1010.5 1010.4 0.0
16/12:30am 20.9 19.3 16.5 76 2.7 SSW 20 24 11 13 1011.1 1011.0 0.0
16/12:00am 21.2 19.3 15.7 71 3.3 SSW 20 26 11 14 1010.9 1010.8 0.0
 
Date/Time
CDT
Temp
°C
App
Temp
°C
Dew
Point
°C
Rel
Hum
%
Delta-T
°C
Wind Press
QNH
hPa
Press
MSL
hPa
Rain since
9am
mm
Dir  Spd
km/h
Gust
km/h
Spd
kts
Gust
kts
15/11:30pm 21.5 19.5 15.6 69 3.5 SSW 20 24 11 13 1011.4 1011.3 0.0
15/11:00pm 21.9 20.1 16.0 69 3.6 SSW 20 26 11 14 1011.5 1011.4 0.0
15/10:30pm 22.1 20.0 16.1 69 3.6 SW 22 28 12 15 1011.7 1011.6 0.0
15/10:00pm 22.2 19.8 16.5 70 3.5 SW 24 32 13 17 1011.0 1010.9 0.0
15/09:30pm 21.9 21.1 16.0 69 3.6 SSW 15 22 8 12 1010.4 1010.3 0.0
15/09:00pm 22.1 20.3 16.1 69 3.6 SSW 20 28 11 15 1010.1 1010.0 0.0
15/08:30pm 22.9 19.7 16.4 67 4.0 SSW 28 33 15 18 1010.2 1010.1 0.0
15/08:00pm 25.0 20.7 15.3 55 5.8 S 32 44 17 24 1008.9 1008.8 0.0
15/07:37pm 28.6 27.9 14.4 41 8.6 S 11 35 6 19 1008.5 1008.4 0.0
15/07:30pm 29.7 29.2 12.2 34 10.3 SE 6 7 3 4 1008.4 1008.3 0.0
15/07:00pm 30.6 28.4 12.0 32 10.9 S 15 17 8 9 1007.9 1007.8 0.0
15/06:54pm 31.9 29.9 12.7 31 11.4 S 15 17 8 9 1007.8 1007.7 0.0
15/06:30pm 37.1 34.7 7.1 16 16.8 NE 9 17 5 9 1007.6 1007.5 0.0
15/06:00pm 34.1 32.1 8.7 21 14.4 SSE 9 11 5 6 1007.7 1007.6 0.0
15/05:30pm 34.2 31.4 2.9 14 16.2 SSE 7 9 4 5 1007.8 1007.7 0.0
15/05:00pm 32.5 30.4 6.7 20 14.0 S 7 9 4 5 1008.1 1008.0 0.0
15/04:30pm 32.0 29.7 5.5 19 14.1 SSW 7 11 4 6 1008.4 1008.3 0.0
15/04:00pm 29.5 27.9 10.1 30 11.0 S 9 13 5 7 1008.7 1008.6 0.0
15/03:30pm 29.0 27.5 12.0 35 9.9 S 11 13 6 7 1008.8 1008.7 0.0
15/03:00pm 30.1 27.6 11.1 31 11.0 SSW 15 20 8 11 1009.4 1009.3 0.0
15/02:30pm 28.0 26.4 12.8 39 8.9 SW 13 17 7 9 1009.7 1009.6 0.0
15/02:00pm 26.5 24.4 15.2 49 6.8 SW 20 24 11 13 1010.2 1010.1 0.0
15/01:30pm 27.1 25.3 17.0 54 6.3 SW 22 30 12 16 1010.6 1010.5 0.0
15/01:00pm 26.8 24.0 16.4 53 6.4 SW 26 35 14 19 1010.8 1010.7 0.0
15/12:30pm 26.0 22.7 16.0 54 6.1 SW 28 32 15 17 1010.9 1010.8 0.0
15/12:00pm 26.5 24.5 16.4 53 6.2 SSW 22 28 12 15 1010.5 1010.4 0.0
15/11:30am 25.5 22.7 17.2 60 5.2 SSW 28 35 15 19 1010.1 1010.0 0.0
15/11:00am 25.1 22.4 16.5 59 5.3 SSW 26 32 14 17 1009.2 1009.1 0.0
15/10:30am 23.9 20.7 16.4 63 4.6 SSW 28 35 15 19 1009.0 1008.9 0.0
15/10:05am 26.5 25.8 16.4 53 6.2 SW 15 32 8 17 1008.6 1008.5 0.0
15/10:00am 31.5 28.8 2.7 16 14.5 SSW 6 11 3 6 1008.5 1008.4 0.0
15/09:30am 29.6 26.9 5.6 22 12.6 N 9 11 5 6 1008.4 1008.3 0.0
15/09:00am 26.7 23.7 7.7 30 10.2 N 13 20 7 11 1008.6 1008.5 0.0
15/08:30am 23.7 22.9 14.1 55 5.7 NNE 11 15 6 8 1008.8 1008.7 0.0
15/08:00am 21.8 22.7 15.2 66 3.9 NE 4 11 2 6 1008.9 1008.8 0.0
15/07:30am 21.0 22.3 17.0 78 2.4 SSW 6 7 3 4 1008.9 1008.8 0.0
15/07:00am 18.7 18.7 15.2 80 2.1 W 9 11 5 6 1009.0 1008.9 0.0
15/06:30am 17.9 18.0 13.8 77 2.3 WNW 6 11 3 6 1008.8 1008.7 0.0
15/06:00am 18.0 17.9 13.9 77 2.3 W 7 9 4 5 1008.7 1008.6 0.0
15/05:30am 17.6 16.9 13.3 76 2.4 NNE 9 11 5 6 1008.4 1008.3 0.0
15/05:00am 17.2 17.2 13.7 80 2.0 NE 6 7 3 4 1008.4 1008.3 0.0
15/04:30am 18.5 19.4 15.2 81 1.9 E 4 7 2 4 1008.3 1008.2 0.0
15/04:00am 19.4 20.9 15.7 79 2.2 S 2 9 1 5 1008.4 1008.3 0.0
15/03:30am 19.0 18.8 14.7 76 2.5 ENE 9 11 5 6 1008.3 1008.2 0.0
15/03:00am 19.1 19.4 16.0 82 1.8 E 9 11 5 6 1008.6 1008.5 0.0
15/02:30am 19.9 21.6 16.2 79 2.2 S 2 9 1 5 1008.8 1008.7 0.0
15/02:00am 21.0 23.5 17.2 79 2.3 CALM 0 0 0 0 1009.0 1008.9 0.0
15/01:30am 20.8 21.4 15.8 73 3.0 SW 7 9 4 5 1009.0 1008.9 0.0
15/01:00am 20.7 22.3 15.0 70 3.4 CALM 0 0 0 0 1009.3 1009.2 0.0
15/12:30am 21.0 21.2 14.2 65 4.0 W 6 7 3 4 1009.4 1009.3 0.0
15/12:00am 20.8 20.9 15.4 71 3.2 NNW 9 11 5 6 1009.6 1009.5 0.0
 
Date/Time
CDT
Temp
°C
App
Temp
°C
Dew
Point
°C
Rel
Hum
%
Delta-T
°C
Wind Press
QNH
hPa
Press
MSL
hPa
Rain since
9am
mm
Dir  Spd
km/h
Gust
km/h
Spd
kts
Gust
kts
14/11:30pm 20.9 21.3 15.2 70 3.4 WNW 7 11 4 6 1010.0 1009.9 0.0
14/11:00pm 21.4 21.0 16.1 72 3.2 N 13 15 7 8 1010.0 1009.9 0.0
14/10:30pm 21.2 20.8 15.3 69 3.5 NNW 11 13 6 7 1010.2 1010.1 0.0
14/10:00pm 21.4 21.4 15.3 68 3.6 NNW 9 11 5 6 1010.5 1010.4 0.0
14/09:30pm 21.5 23.4 15.8 70 3.4 CALM 0 7 0 4 1010.5 1010.4 0.0

Other Formats:

Comma delimited format used in spreadsheet applications
http://www.bom.gov.au/fwo/IDS60801/IDS60801.94677.axf

JavaScript Object Notation format (JSON) in row-major order
http://www.bom.gov.au/fwo/IDS60801/IDS60801.94677.json